Time;durP1;ratioP1;P1;durP2;ratioP2;P2;SDS_P1;SDS_P2;PMS_P1;PMS_P2;Temp;Humidity;BMP_temperature;BMP_pressure;BME280_temperature;BME280_humidity;BME280_pressure;Samples;Min_cycle;Max_cycle;Signal;HPM_P1;HPM_P2
2021/11/04 00:01:59;;;;;;;19.97;17.43;;;;;;;;;;5005237;28;20220;-73
2021/11/04 00:04:25;;;;;;;21.03;17.57;;;;;;;;;;5006385;28;20265;-73
2021/11/04 00:06:53;;;;;;;20.80;18.00;;;;;;;;;;5007564;28;20173;-72
2021/11/04 00:09:18;;;;;;;21.33;19.13;;;;;;;;;;5007280;28;20444;-72
2021/11/04 00:11:43;;;;;;;21.53;18.13;;;;;;;;;;5010108;28;20466;-72
2021/11/04 00:14:08;;;;;;;20.63;17.73;;;;;;;;;;5008753;28;20319;-72
2021/11/04 00:16:34;;;;;;;20.63;18.20;;;;;;;;;;5018928;28;20325;-72
2021/11/04 00:18:59;;;;;;;21.27;17.53;;;;;;;;;;5008402;28;20191;-72
2021/11/04 00:21:24;;;;;;;21.90;18.57;;;;;;;;;;5009243;28;20204;-72
2021/11/04 00:23:51;;;;;;;21.87;17.83;;;;;;;;;;5006373;28;20539;-72
2021/11/04 00:26:16;;;;;;;21.77;18.10;;;;;;;;;;5009527;28;20658;-72
2021/11/04 00:28:41;;;;;;;22.40;19.50;;;;;;;;;;5007167;28;20477;-71
2021/11/04 00:31:07;;;;;;;24.47;19.47;;;;;;;;;;5012030;28;20208;-71
2021/11/04 00:33:35;;;;;;;24.10;20.57;;;;;;;;;;5007903;28;20177;-72
2021/11/04 00:36:00;;;;;;;24.63;21.03;;;;;;;;;;5009736;28;20181;-71
2021/11/04 00:38:25;;;;;;;23.30;19.90;;;;;;;;;;5008792;28;20431;-72
2021/11/04 00:40:51;;;;;;;25.60;21.70;;;;;;;;;;5009610;28;20216;-72
2021/11/04 00:43:16;;;;;;;24.23;20.70;;;;;;;;;;5014746;28;20184;-72
2021/11/04 00:45:41;;;;;;;22.80;19.67;;;;;;;;;;5010544;28;20177;-73
2021/11/04 00:48:06;;;;;;;26.80;21.37;;;;;;;;;;5009693;28;20307;-73
2021/11/04 00:50:32;;;;;;;25.47;21.63;;;;;;;;;;5007714;28;20291;-72
2021/11/04 00:52:57;;;;;;;27.67;22.10;;;;;;;;;;5008095;28;20185;-72
2021/11/04 00:55:23;;;;;;;24.37;20.97;;;;;;;;;;5009934;28;20200;-72
2021/11/04 00:57:49;;;;;;;26.00;21.70;;;;;;;;;;5006533;28;20172;-73
2021/11/04 01:00:15;;;;;;;26.10;21.47;;;;;;;;;;5008119;28;20180;-72
2021/11/04 01:02:40;;;;;;;25.73;21.07;;;;;;;;;;5007149;28;21074;-72
2021/11/04 01:05:06;;;;;;;26.07;21.53;;;;;;;;;;5012105;28;20191;-73
2021/11/04 01:07:31;;;;;;;26.60;22.70;;;;;;;;;;5006875;28;20188;-72
2021/11/04 01:09:56;;;;;;;25.43;20.70;;;;;;;;;;5010525;28;20172;-72
2021/11/04 01:12:22;;;;;;;27.33;22.47;;;;;;;;;;5009022;28;20197;-71
2021/11/04 01:14:47;;;;;;;23.70;20.93;;;;;;;;;;5008686;28;20196;-72
2021/11/04 01:17:12;;;;;;;23.90;21.17;;;;;;;;;;5008964;28;20180;-72
2021/11/04 01:19:37;;;;;;;25.20;21.30;;;;;;;;;;5013378;28;20647;-72
2021/11/04 01:22:03;;;;;;;24.00;20.23;;;;;;;;;;5012666;28;20220;-72
2021/11/04 01:24:29;;;;;;;23.97;21.37;;;;;;;;;;5004582;28;20185;-73
2021/11/04 01:26:54;;;;;;;25.17;21.23;;;;;;;;;;5009448;28;20484;-73
2021/11/04 01:29:19;;;;;;;28.63;22.33;;;;;;;;;;5007524;28;20177;-73
2021/11/04 01:31:45;;;;;;;22.80;20.20;;;;;;;;;;5008410;28;20205;-72
2021/11/04 01:34:10;;;;;;;25.63;21.83;;;;;;;;;;5009501;28;20279;-72
2021/11/04 01:36:35;;;;;;;25.33;21.30;;;;;;;;;;5010796;28;20177;-72
2021/11/04 01:39:01;;;;;;;27.40;22.83;;;;;;;;;;5013095;28;20592;-72
2021/11/04 01:41:26;;;;;;;24.17;21.57;;;;;;;;;;5009952;28;20201;-72
2021/11/04 01:43:51;;;;;;;24.27;21.13;;;;;;;;;;5010666;28;20184;-73
2021/11/04 01:46:22;;;;;;;25.63;21.33;;;;;;;;;;5014747;28;20224;-72
2021/11/04 01:48:48;;;;;;;22.83;20.07;;;;;;;;;;5011423;28;20885;-72
2021/11/04 01:51:14;;;;;;;22.57;19.70;;;;;;;;;;5013977;28;20466;-71
2021/11/04 01:53:39;;;;;;;22.87;19.37;;;;;;;;;;5012050;28;20439;-72
2021/11/04 01:56:05;;;;;;;20.87;18.57;;;;;;;;;;5019480;28;20191;-72
2021/11/04 01:58:30;;;;;;;19.97;17.67;;;;;;;;;;5011923;28;20185;-73
2021/11/04 02:00:55;;;;;;;23.50;19.80;;;;;;;;;;5012841;28;20652;-72
2021/11/04 02:03:32;;;;;;;20.63;18.40;;;;;;;;;;5011241;28;20246;-73
2021/11/04 02:05:57;;;;;;;19.50;17.27;;;;;;;;;;5013130;28;20204;-72
2021/11/04 02:08:24;;;;;;;20.83;18.57;;;;;;;;;;5012149;28;20458;-72
2021/11/04 02:10:55;;;;;;;20.47;18.27;;;;;;;;;;5011675;28;20251;-72
2021/11/04 02:13:24;;;;;;;21.93;19.43;;;;;;;;;;5010177;28;20424;-72
2021/11/04 02:15:56;;;;;;;20.83;18.30;;;;;;;;;;5013092;28;20486;-72
2021/11/04 02:18:22;;;;;;;22.77;18.60;;;;;;;;;;5013232;28;20438;-72
2021/11/04 02:20:53;;;;;;;21.90;19.50;;;;;;;;;;5010337;28;20986;-72
2021/11/04 02:23:35;;;;;;;23.57;20.13;;;;;;;;;;5012291;28;20511;-72
2021/11/04 02:26:02;;;;;;;28.23;21.10;;;;;;;;;;5009600;28;20428;-72
2021/11/04 02:28:28;;;;;;;24.63;21.37;;;;;;;;;;5010365;28;20921;-72
2021/11/04 02:30:54;;;;;;;23.80;20.60;;;;;;;;;;5011075;28;20848;-72
2021/11/04 02:33:20;;;;;;;27.50;23.10;;;;;;;;;;5012624;28;20428;-72
2021/11/04 02:35:51;;;;;;;27.17;22.43;;;;;;;;;;5011484;28;20647;-72
2021/11/04 02:38:20;;;;;;;26.93;23.07;;;;;;;;;;5013953;28;20443;-71
2021/11/04 02:40:46;;;;;;;26.50;22.73;;;;;;;;;;5013553;28;20499;-71
2021/11/04 02:43:15;;;;;;;28.70;23.30;;;;;;;;;;5017554;28;20462;-72
2021/11/04 02:45:40;;;;;;;24.50;21.80;;;;;;;;;;5014225;28;20181;-72
2021/11/04 02:48:06;;;;;;;25.00;22.30;;;;;;;;;;5006568;28;20809;-72
2021/11/04 02:50:31;;;;;;;27.50;22.50;;;;;;;;;;5012029;28;20201;-71
2021/11/04 02:52:57;;;;;;;25.00;21.90;;;;;;;;;;5014119;28;20636;-71
2021/11/04 02:55:35;;;;;;;25.03;21.93;;;;;;;;;;5015966;28;20207;-71
2021/11/04 02:58:05;;;;;;;26.23;22.23;;;;;;;;;;5010768;28;20199;-71
2021/11/04 03:00:30;;;;;;;23.23;20.10;;;;;;;;;;5011227;28;20436;-72
2021/11/04 03:02:56;;;;;;;23.30;20.30;;;;;;;;;;5007045;28;20477;-71
2021/11/04 03:05:21;;;;;;;24.80;21.73;;;;;;;;;;5013431;28;20200;-72
2021/11/04 03:07:46;;;;;;;24.20;20.57;;;;;;;;;;5012864;28;20195;-71
2021/11/04 03:10:12;;;;;;;23.70;20.90;;;;;;;;;;5010208;28;20250;-71
2021/11/04 03:12:37;;;;;;;23.37;20.77;;;;;;;;;;5006208;28;20188;-72
2021/11/04 03:15:03;;;;;;;20.43;18.30;;;;;;;;;;5011784;28;20267;-71
2021/11/04 03:17:28;;;;;;;21.13;18.40;;;;;;;;;;5007242;28;20559;-72
2021/11/04 03:19:54;;;;;;;20.53;18.33;;;;;;;;;;5011326;28;21281;-72
2021/11/04 03:22:19;;;;;;;19.87;17.67;;;;;;;;;;5006842;28;20212;-72
2021/11/04 03:24:45;;;;;;;18.20;16.30;;;;;;;;;;5009674;28;20427;-71
2021/11/04 03:27:10;;;;;;;18.93;16.90;;;;;;;;;;5006443;28;20207;-72
2021/11/04 03:29:37;;;;;;;17.53;15.67;;;;;;;;;;5010296;28;20678;-72
2021/11/04 03:32:07;;;;;;;18.10;16.20;;;;;;;;;;5008110;28;20204;-72
2021/11/04 03:34:34;;;;;;;18.20;16.30;;;;;;;;;;5008155;28;20521;-72
2021/11/04 03:37:00;;;;;;;19.53;17.53;;;;;;;;;;5007693;28;20423;-72
2021/11/04 03:39:25;;;;;;;18.77;16.40;;;;;;;;;;5012412;28;20462;-72
2021/11/04 03:41:52;;;;;;;17.90;16.07;;;;;;;;;;5016932;28;20489;-72
2021/11/04 03:44:19;;;;;;;17.57;15.73;;;;;;;;;;5009694;28;20428;-72
2021/11/04 03:46:45;;;;;;;17.77;15.90;;;;;;;;;;5011240;28;20566;-72
2021/11/04 03:49:11;;;;;;;18.67;16.67;;;;;;;;;;5012138;28;20505;-72
2021/11/04 03:51:37;;;;;;;18.27;16.37;;;;;;;;;;5009536;28;20204;-72
2021/11/04 03:54:02;;;;;;;17.47;15.67;;;;;;;;;;5007733;28;20517;-72
2021/11/04 03:56:28;;;;;;;17.00;15.03;;;;;;;;;;5011369;28;20181;-73
2021/11/04 03:58:53;;;;;;;18.00;16.17;;;;;;;;;;5006525;28;20641;-72
2021/11/04 04:01:21;;;;;;;16.27;14.67;;;;;;;;;;5006824;28;20315;-73
2021/11/04 04:03:47;;;;;;;18.20;16.30;;;;;;;;;;5006424;28;20631;-73
2021/11/04 04:06:12;;;;;;;15.50;13.90;;;;;;;;;;5017284;28;20436;-73
2021/11/04 04:08:40;;;;;;;16.10;14.40;;;;;;;;;;5010239;28;20182;-72
2021/11/04 04:11:05;;;;;;;17.37;15.67;;;;;;;;;;5011254;28;20232;-72
2021/11/04 04:13:34;;;;;;;16.97;15.27;;;;;;;;;;5009712;28;20920;-73
2021/11/04 04:15:59;;;;;;;17.57;15.77;;;;;;;;;;5007584;28;20440;-72
2021/11/04 04:18:25;;;;;;;16.17;14.60;;;;;;;;;;5009208;28;20510;-72
2021/11/04 04:20:51;;;;;;;18.63;16.67;;;;;;;;;;5010353;28;20283;-72
2021/11/04 04:23:16;;;;;;;16.40;14.80;;;;;;;;;;5006589;28;20185;-72
2021/11/04 04:25:41;;;;;;;16.47;14.87;;;;;;;;;;5009282;28;20831;-73
2021/11/04 04:28:07;;;;;;;17.00;15.23;;;;;;;;;;5010229;28;20199;-72
2021/11/04 04:30:32;;;;;;;17.83;16.03;;;;;;;;;;5007751;28;20204;-72
2021/11/04 04:32:57;;;;;;;17.17;15.37;;;;;;;;;;5009968;28;20192;-72
2021/11/04 04:35:23;;;;;;;17.00;15.20;;;;;;;;;;5010259;28;20184;-72
2021/11/04 04:37:48;;;;;;;18.70;16.80;;;;;;;;;;5008116;28;20343;-71
2021/11/04 04:40:13;;;;;;;19.07;17.07;;;;;;;;;;5011878;28;20196;-71
2021/11/04 04:42:38;;;;;;;19.27;17.27;;;;;;;;;;5005801;28;20193;-72
2021/11/04 04:45:04;;;;;;;18.77;16.23;;;;;;;;;;5003075;28;20264;-72
2021/11/04 04:47:30;;;;;;;17.63;15.83;;;;;;;;;;5007059;28;20525;-72
2021/11/04 04:49:58;;;;;;;18.03;16.23;;;;;;;;;;5007925;28;20494;-73
2021/11/04 04:52:24;;;;;;;14.53;13.10;;;;;;;;;;5008329;28;21115;-72
2021/11/04 04:54:49;;;;;;;15.60;14.07;;;;;;;;;;5005694;28;20436;-72
2021/11/04 04:57:21;;;;;;;16.27;14.10;;;;;;;;;;5008779;28;20180;-72
2021/11/04 04:59:46;;;;;;;15.97;13.50;;;;;;;;;;5008686;28;20192;-72
2021/11/04 05:02:12;;;;;;;14.80;13.30;;;;;;;;;;5005526;28;20468;-73
2021/11/04 05:04:37;;;;;;;14.73;13.23;;;;;;;;;;5009135;28;20192;-72
2021/11/04 05:07:02;;;;;;;14.60;13.10;;;;;;;;;;5007660;28;20177;-72
2021/11/04 05:09:27;;;;;;;14.97;13.47;;;;;;;;;;5011298;28;20750;-72
2021/11/04 05:11:53;;;;;;;15.93;14.33;;;;;;;;;;5009872;28;20204;-72
2021/11/04 05:14:18;;;;;;;17.90;16.20;;;;;;;;;;5013003;28;20240;-72
2021/11/04 05:16:43;;;;;;;17.13;15.40;;;;;;;;;;5013620;28;20181;-71
2021/11/04 05:19:09;;;;;;;16.07;14.57;;;;;;;;;;5010364;28;20188;-72
2021/11/04 05:21:35;;;;;;;17.70;15.90;;;;;;;;;;5016480;28;20209;-71
2021/11/04 05:24:01;;;;;;;16.83;15.13;;;;;;;;;;5011970;28;20445;-72
2021/11/04 05:26:26;;;;;;;18.23;16.40;;;;;;;;;;5011973;28;20569;-72
2021/11/04 05:28:51;;;;;;;16.70;15.10;;;;;;;;;;5009074;28;20427;-72
2021/11/04 05:31:17;;;;;;;17.23;15.53;;;;;;;;;;5008106;28;20200;-72
2021/11/04 05:33:42;;;;;;;15.73;14.23;;;;;;;;;;5012412;28;20689;-72
2021/11/04 05:36:07;;;;;;;15.10;13.60;;;;;;;;;;5007921;28;20649;-72
2021/11/04 05:38:33;;;;;;;15.43;13.93;;;;;;;;;;5014281;28;20647;-73
2021/11/04 05:40:58;;;;;;;14.00;12.70;;;;;;;;;;5009477;28;20207;-72
2021/11/04 05:43:23;;;;;;;13.87;12.57;;;;;;;;;;5011804;28;20177;-72
2021/11/04 05:45:48;;;;;;;13.60;12.40;;;;;;;;;;5011138;28;20169;-73
2021/11/04 05:48:14;;;;;;;13.30;12.00;;;;;;;;;;5010852;28;20260;-72
2021/11/04 05:50:39;;;;;;;12.70;11.57;;;;;;;;;;5011116;28;20286;-72
2021/11/04 05:53:04;;;;;;;14.20;12.90;;;;;;;;;;5009790;28;20272;-73
2021/11/04 05:55:29;;;;;;;13.00;11.80;;;;;;;;;;5009469;28;20185;-72
2021/11/04 05:57:55;;;;;;;14.07;12.70;;;;;;;;;;5008601;28;20191;-72
2021/11/04 06:00:20;;;;;;;13.50;12.30;;;;;;;;;;5008771;28;20192;-72
2021/11/04 06:02:45;;;;;;;13.37;12.10;;;;;;;;;;5010035;28;20212;-73
2021/11/04 06:05:10;;;;;;;13.00;11.80;;;;;;;;;;5008982;28;20177;-72
2021/11/04 06:07:36;;;;;;;13.53;12.33;;;;;;;;;;5009606;28;20689;-72
2021/11/04 06:10:02;;;;;;;13.03;11.83;;;;;;;;;;5011705;28;20181;-72
2021/11/04 06:12:27;;;;;;;13.30;12.10;;;;;;;;;;5006411;28;20567;-72
2021/11/04 06:14:52;;;;;;;13.07;11.87;;;;;;;;;;5013728;28;20446;-72
2021/11/04 06:17:18;;;;;;;13.40;12.20;;;;;;;;;;5012325;28;20257;-72
2021/11/04 06:19:43;;;;;;;13.90;12.50;;;;;;;;;;5013812;28;20219;-72
2021/11/04 06:22:08;;;;;;;12.53;11.23;;;;;;;;;;5012564;28;20219;-72
2021/11/04 06:24:34;;;;;;;12.33;11.17;;;;;;;;;;5011419;28;20563;-72
2021/11/04 06:26:59;;;;;;;12.77;11.20;;;;;;;;;;5012543;28;20280;-72
2021/11/04 06:29:24;;;;;;;13.63;12.20;;;;;;;;;;5017361;28;20271;-71
2021/11/04 06:31:50;;;;;;;12.90;11.60;;;;;;;;;;5009588;28;20292;-72
2021/11/04 06:34:15;;;;;;;13.47;12.07;;;;;;;;;;5015553;28;20177;-72
2021/11/04 06:36:40;;;;;;;12.73;11.43;;;;;;;;;;5015557;28;20269;-72
2021/11/04 06:39:06;;;;;;;13.73;12.37;;;;;;;;;;5014154;28;20192;-72
2021/11/04 06:41:31;;;;;;;13.30;12.00;;;;;;;;;;5014695;28;20216;-71
2021/11/04 06:43:56;;;;;;;12.37;11.10;;;;;;;;;;5010274;28;20192;-71
2021/11/04 06:46:25;;;;;;;12.13;11.03;;;;;;;;;;5011404;28;20177;-72
2021/11/04 06:48:52;;;;;;;10.97;9.90;;;;;;;;;;5012819;28;20180;-72
2021/11/04 06:51:18;;;;;;;10.20;9.20;;;;;;;;;;5023782;28;20512;-71
2021/11/04 06:53:45;;;;;;;11.47;10.47;;;;;;;;;;5012995;28;20431;-72
2021/11/04 06:56:11;;;;;;;11.33;10.30;;;;;;;;;;5009080;28;20519;-72
2021/11/04 06:58:36;;;;;;;10.67;9.67;;;;;;;;;;5009940;28;20424;-72
2021/11/04 07:01:05;;;;;;;10.63;9.73;;;;;;;;;;5010864;28;20829;-72
2021/11/04 07:03:32;;;;;;;10.93;9.83;;;;;;;;;;5013213;28;20181;-72
2021/11/04 07:06:23;;;;;;;11.27;10.27;;;;;;;;;;5018523;28;20428;-72
2021/11/04 07:08:52;;;;;;;11.90;10.77;;;;;;;;;;5011720;28;20427;-72
2021/11/04 07:11:17;;;;;;;12.27;11.07;;;;;;;;;;5009414;28;20457;-72
2021/11/04 07:13:48;;;;;;;10.87;9.80;;;;;;;;;;5010921;28;20514;-72
2021/11/04 07:16:15;;;;;;;10.57;9.67;;;;;;;;;;5012843;28;20227;-72
2021/11/04 07:18:40;;;;;;;11.77;10.57;;;;;;;;;;5010769;28;21859;-72
2021/11/04 07:21:10;;;;;;;11.50;10.40;;;;;;;;;;5011058;28;20490;-72
2021/11/04 07:23:49;;;;;;;10.80;9.80;;;;;;;;;;5010783;28;20568;-72
2021/11/04 07:26:15;;;;;;;10.87;9.87;;;;;;;;;;5011321;28;20451;-72
2021/11/04 07:28:41;;;;;;;12.00;10.90;;;;;;;;;;5009305;28;20432;-72
2021/11/04 07:31:10;;;;;;;12.80;11.50;;;;;;;;;;5008897;28;20690;-72
2021/11/04 07:33:40;;;;;;;12.57;11.37;;;;;;;;;;5010321;28;20430;-72
2021/11/04 07:36:05;;;;;;;11.67;10.67;;;;;;;;;;5009406;28;20796;-72
2021/11/04 07:38:31;;;;;;;12.33;10.80;;;;;;;;;;5007577;28;20428;-72
2021/11/04 07:40:59;;;;;;;10.03;9.13;;;;;;;;;;5007320;28;20270;-72
2021/11/04 07:43:25;;;;;;;10.27;9.27;;;;;;;;;;5007807;28;20535;-72
2021/11/04 07:45:53;;;;;;;9.50;8.70;;;;;;;;;;5013161;28;20879;-72
2021/11/04 07:48:20;;;;;;;8.50;7.80;;;;;;;;;;5008695;28;20519;-71
2021/11/04 07:50:49;;;;;;;8.23;7.53;;;;;;;;;;5016099;28;20443;-72
2021/11/04 07:53:14;;;;;;;8.10;7.50;;;;;;;;;;5009945;28;20859;-72
2021/11/04 07:55:40;;;;;;;8.30;7.70;;;;;;;;;;5010095;28;20431;-72
2021/11/04 07:58:05;;;;;;;9.13;8.37;;;;;;;;;;5008129;28;20203;-72
2021/11/04 08:00:30;;;;;;;9.27;8.47;;;;;;;;;;5010070;28;20212;-71
2021/11/04 08:02:58;;;;;;;9.33;8.53;;;;;;;;;;5008985;28;20674;-72
2021/11/04 08:05:24;;;;;;;9.30;8.50;;;;;;;;;;5009592;28;20643;-72
2021/11/04 08:07:49;;;;;;;9.10;8.30;;;;;;;;;;5009100;28;20434;-71
2021/11/04 08:10:15;;;;;;;7.63;6.93;;;;;;;;;;5009058;28;20208;-71
2021/11/04 08:12:41;;;;;;;8.57;7.77;;;;;;;;;;5011193;28;20184;-72
2021/11/04 08:15:07;;;;;;;8.50;7.63;;;;;;;;;;5010775;28;20947;-71
2021/11/04 08:17:32;;;;;;;9.00;8.20;;;;;;;;;;5010460;28;20184;-72
2021/11/04 08:19:58;;;;;;;8.40;7.70;;;;;;;;;;5009964;28;20432;-72
2021/11/04 08:22:23;;;;;;;9.13;8.20;;;;;;;;;;5007984;28;20435;-72
2021/11/04 08:24:49;;;;;;;9.10;8.20;;;;;;;;;;5012202;28;20172;-73
2021/11/04 08:27:15;;;;;;;7.40;6.70;;;;;;;;;;5011913;28;20177;-73
2021/11/04 08:29:40;;;;;;;8.40;7.60;;;;;;;;;;5010820;28;20176;-72
2021/11/04 08:32:08;;;;;;;7.37;6.67;;;;;;;;;;5008949;28;20590;-72
2021/11/04 08:34:34;;;;;;;7.83;7.13;;;;;;;;;;5009090;28;20181;-73
2021/11/04 08:36:59;;;;;;;8.47;7.70;;;;;;;;;;5015247;28;20431;-72
2021/11/04 08:39:24;;;;;;;9.00;8.20;;;;;;;;;;5009195;28;20192;-72
2021/11/04 08:41:50;;;;;;;8.47;7.77;;;;;;;;;;5008588;28;21080;-71
2021/11/04 08:44:15;;;;;;;9.57;8.67;;;;;;;;;;5011643;28;20548;-72
2021/11/04 08:46:40;;;;;;;9.33;8.43;;;;;;;;;;5010053;28;20187;-72
2021/11/04 08:49:06;;;;;;;9.93;8.93;;;;;;;;;;5006311;28;20230;-71
2021/11/04 08:51:32;;;;;;;9.53;8.63;;;;;;;;;;5007373;28;20356;-72
2021/11/04 08:53:58;;;;;;;9.83;8.83;;;;;;;;;;5012005;28;20174;-73
2021/11/04 08:56:23;;;;;;;9.80;8.90;;;;;;;;;;5011719;28;20459;-72
2021/11/04 08:58:49;;;;;;;10.63;9.53;;;;;;;;;;5010944;28;20432;-72
2021/11/04 09:01:15;;;;;;;10.50;9.40;;;;;;;;;;5008065;28;20237;-72
2021/11/04 09:03:40;;;;;;;9.77;8.87;;;;;;;;;;5007413;28;20549;-71
2021/11/04 09:06:05;;;;;;;10.00;9.10;;;;;;;;;;5012312;28;20438;-72
2021/11/04 09:08:31;;;;;;;10.80;9.70;;;;;;;;;;5008267;28;20176;-72
2021/11/04 09:10:56;;;;;;;10.20;9.20;;;;;;;;;;5010686;28;20553;-72
2021/11/04 09:13:22;;;;;;;11.17;10.07;;;;;;;;;;5004512;28;20301;-72
2021/11/04 09:15:48;;;;;;;12.30;9.47;;;;;;;;;;5007689;28;21272;-72
2021/11/04 09:18:13;;;;;;;9.93;8.93;;;;;;;;;;5007956;28;20466;-72
2021/11/04 09:20:39;;;;;;;10.70;9.60;;;;;;;;;;5010428;28;20196;-72
2021/11/04 09:23:04;;;;;;;9.73;8.73;;;;;;;;;;5005518;28;20184;-72
2021/11/04 09:25:29;;;;;;;9.17;8.27;;;;;;;;;;5011631;28;21153;-73
2021/11/04 09:27:56;;;;;;;9.90;9.00;;;;;;;;;;5007258;28;20185;-72
2021/11/04 09:30:22;;;;;;;10.73;9.63;;;;;;;;;;5011038;28;20226;-72
2021/11/04 09:32:47;;;;;;;9.67;8.73;;;;;;;;;;5008515;28;20440;-72
2021/11/04 09:35:13;;;;;;;8.93;8.07;;;;;;;;;;5003357;28;20219;-72
2021/11/04 09:37:40;;;;;;;9.23;8.10;;;;;;;;;;5008286;28;20189;-72
2021/11/04 09:40:06;;;;;;;9.73;8.70;;;;;;;;;;5010561;28;20522;-73
2021/11/04 09:42:32;;;;;;;8.90;8.00;;;;;;;;;;5012303;28;20639;-72
2021/11/04 09:44:57;;;;;;;9.37;8.40;;;;;;;;;;5004905;28;20576;-72
2021/11/04 09:47:24;;;;;;;7.57;6.87;;;;;;;;;;5005876;28;20831;-72
2021/11/04 09:49:53;;;;;;;10.67;7.27;;;;;;;;;;5003226;28;22345;-72
2021/11/04 09:52:30;;;;;;;7.40;6.70;;;;;;;;;;5003934;28;20475;-72
2021/11/04 09:54:56;;;;;;;6.83;6.13;;;;;;;;;;5006842;28;20430;-73
2021/11/04 09:57:25;;;;;;;7.47;6.63;;;;;;;;;;5006267;28;20443;-72
2021/11/04 09:59:51;;;;;;;7.43;6.73;;;;;;;;;;5007211;28;20300;-72
2021/11/04 10:02:17;;;;;;;9.13;7.20;;;;;;;;;;5006412;28;20475;-72
2021/11/04 10:04:47;;;;;;;7.80;7.03;;;;;;;;;;5008257;28;20665;-72
2021/11/04 10:07:13;;;;;;;7.43;6.63;;;;;;;;;;5007490;28;20432;-72
2021/11/04 10:09:39;;;;;;;7.70;6.40;;;;;;;;;;5013439;28;20833;-73
2021/11/04 10:12:09;;;;;;;7.47;6.77;;;;;;;;;;5008583;28;20451;-73
2021/11/04 10:14:36;;;;;;;8.80;7.43;;;;;;;;;;5011481;28;20430;-73
2021/11/04 10:17:01;;;;;;;8.17;7.33;;;;;;;;;;5013368;28;20526;-72
2021/11/04 10:19:38;;;;;;;9.00;8.20;;;;;;;;;;5007438;28;20994;-73
2021/11/04 10:22:04;;;;;;;8.57;7.67;;;;;;;;;;5010434;28;20212;-72
2021/11/04 10:24:29;;;;;;;7.60;6.90;;;;;;;;;;5008034;28;21125;-72
2021/11/04 10:26:55;;;;;;;6.80;6.10;;;;;;;;;;5009935;28;20435;-72
2021/11/04 10:29:21;;;;;;;6.40;5.40;;;;;;;;;;5014102;28;20184;-72
2021/11/04 10:31:52;;;;;;;5.60;5.10;;;;;;;;;;5012117;28;20460;-72
2021/11/04 10:34:23;;;;;;;6.50;5.80;;;;;;;;;;5009984;28;20443;-73
2021/11/04 10:36:48;;;;;;;5.67;5.00;;;;;;;;;;5013604;28;20435;-72
2021/11/04 10:39:13;;;;;;;5.87;5.27;;;;;;;;;;5011495;28;20869;-72
2021/11/04 10:41:40;;;;;;;5.00;4.50;;;;;;;;;;5011425;28;20354;-72
2021/11/04 10:44:15;;;;;;;4.70;4.27;;;;;;;;;;5013664;28;20181;-72
2021/11/04 10:46:46;;;;;;;3.70;3.40;;;;;;;;;;5011734;28;20427;-72
2021/11/04 10:49:12;;;;;;;3.83;3.53;;;;;;;;;;5010491;28;20509;-72
2021/11/04 10:51:40;;;;;;;4.27;3.87;;;;;;;;;;5011587;28;20451;-72
2021/11/04 10:54:13;;;;;;;4.20;3.80;;;;;;;;;;5012841;28;20488;-72
2021/11/04 10:56:40;;;;;;;4.90;3.83;;;;;;;;;;5013124;28;21884;-73
2021/11/04 10:59:06;;;;;;;4.70;4.00;;;;;;;;;;5010408;28;20519;-72
2021/11/04 11:01:36;;;;;;;4.57;4.17;;;;;;;;;;5013464;28;20495;-72
2021/11/04 11:04:04;;;;;;;4.60;4.20;;;;;;;;;;5014800;28;20809;-72
2021/11/04 11:06:35;;;;;;;4.13;3.77;;;;;;;;;;5011689;28;20487;-72
2021/11/04 11:09:01;;;;;;;3.60;3.30;;;;;;;;;;5009862;28;20798;-74
2021/11/04 11:11:27;;;;;;;3.50;3.20;;;;;;;;;;5011484;28;20512;-72
2021/11/04 11:13:52;;;;;;;3.30;3.10;;;;;;;;;;5011463;28;20435;-72
2021/11/04 11:16:17;;;;;;;2.77;2.57;;;;;;;;;;5013857;28;20181;-72
2021/11/04 11:18:43;;;;;;;2.80;2.60;;;;;;;;;;5010103;28;20185;-73
2021/11/04 11:21:08;;;;;;;3.60;3.30;;;;;;;;;;5026575;23;20739;-72
2021/11/04 11:23:34;;;;;;;5.70;4.60;;;;;;;;;;5027173;28;20188;-73
2021/11/04 11:26:00;;;;;;;4.90;4.43;;;;;;;;;;5025117;28;20196;-72
2021/11/04 11:28:35;;;;;;;4.03;3.63;;;;;;;;;;5027547;28;20233;-72
2021/11/04 11:31:10;;;;;;;4.30;3.90;;;;;;;;;;5028058;28;20443;-72
2021/11/04 11:33:56;;;;;;;4.10;3.50;;;;;;;;;;5028700;28;20473;-72
2021/11/04 11:36:22;;;;;;;3.50;3.07;;;;;;;;;;5012265;28;20423;-72
2021/11/04 11:38:56;;;;;;;3.50;3.20;;;;;;;;;;5015385;28;20427;-72
2021/11/04 11:41:22;;;;;;;3.10;2.80;;;;;;;;;;5026728;28;20545;-72
2021/11/04 11:43:57;;;;;;;3.07;2.80;;;;;;;;;;5028588;28;20415;-72
2021/11/04 11:46:23;;;;;;;3.00;2.80;;;;;;;;;;5026841;28;20473;-72
2021/11/04 11:49:07;;;;;;;2.87;2.67;;;;;;;;;;5029850;28;20851;-72
2021/11/04 11:51:39;;;;;;;3.10;2.80;;;;;;;;;;5028132;28;20200;-72
2021/11/04 11:54:04;;;;;;;2.80;2.60;;;;;;;;;;5028424;28;20466;-72
2021/11/04 11:56:30;;;;;;;3.13;2.40;;;;;;;;;;5028348;28;20901;-72
2021/11/04 11:59:30;;;;;;;2.27;2.17;;;;;;;;;;5028856;28;20477;-72
2021/11/04 12:01:56;;;;;;;2.00;1.90;;;;;;;;;;4942450;29;20206;-73
2021/11/04 12:04:25;;;;;;;2.70;2.30;;;;;;;;;;5010815;28;20502;-72
2021/11/04 12:06:52;;;;;;;2.30;1.90;;;;;;;;;;5026741;28;20180;-72
2021/11/04 12:09:37;;;;;;;2.37;2.13;;;;;;;;;;5015841;23;20500;-71
2021/11/04 12:12:02;;;;;;;1.90;1.70;;;;;;;;;;5003679;28;20428;-71
2021/11/04 12:14:29;;;;;;;2.37;2.17;;;;;;;;;;5008685;28;20478;-70
2021/11/04 12:17:04;;;;;;;1.90;1.80;;;;;;;;;;5007134;28;20205;-71
2021/11/04 12:19:42;;;;;;;1.80;1.53;;;;;;;;;;5006010;28;20443;-71
2021/11/04 12:22:12;;;;;;;1.70;1.60;;;;;;;;;;5008238;28;20466;-71
2021/11/04 12:25:03;;;;;;;2.93;1.53;;;;;;;;;;5002502;28;20880;-71
2021/11/04 12:27:29;;;;;;;2.13;1.87;;;;;;;;;;4998596;28;20493;-71
2021/11/04 12:29:55;;;;;;;3.30;2.83;;;;;;;;;;5001658;28;20419;-71
2021/11/04 12:32:22;;;;;;;3.50;3.10;;;;;;;;;;5002754;28;20792;-71
2021/11/04 12:35:01;;;;;;;6.43;5.67;;;;;;;;;;5001551;28;20176;-71
2021/11/04 12:37:30;;;;;;;8.27;6.57;;;;;;;;;;5001468;28;20493;-71
2021/11/04 12:39:55;;;;;;;9.40;7.60;;;;;;;;;;5006481;28;20432;-71
2021/11/04 12:42:21;;;;;;;8.40;7.23;;;;;;;;;;5004289;28;20455;-71
2021/11/04 12:44:47;;;;;;;9.03;7.93;;;;;;;;;;5005761;28;20185;-71
2021/11/04 12:47:17;;;;;;;7.40;6.60;;;;;;;;;;5000299;28;20501;-72
2021/11/04 12:49:42;;;;;;;7.03;6.10;;;;;;;;;;5005535;28;20226;-72
2021/11/04 12:52:08;;;;;;;6.13;5.40;;;;;;;;;;5001553;28;20475;-72
2021/11/04 12:54:35;;;;;;;5.60;5.10;;;;;;;;;;5000942;28;20181;-71
2021/11/04 12:57:02;;;;;;;5.90;4.77;;;;;;;;;;5005382;28;20526;-71
2021/11/04 12:59:41;;;;;;;5.13;3.67;;;;;;;;;;5007382;28;20443;-71
2021/11/04 13:02:18;;;;;;;4.23;2.87;;;;;;;;;;5006667;28;20460;-72
2021/11/04 13:04:43;;;;;;;4.07;3.10;;;;;;;;;;5007564;28;20898;-71
2021/11/04 13:07:10;;;;;;;3.60;2.50;;;;;;;;;;5005232;28;20486;-72
2021/11/04 13:09:41;;;;;;;4.70;3.07;;;;;;;;;;5004494;28;20213;-71
2021/11/04 13:12:08;;;;;;;3.37;3.03;;;;;;;;;;5004649;28;20523;-71
2021/11/04 13:14:50;;;;;;;4.20;3.20;;;;;;;;;;5006312;28;20432;-72
2021/11/04 13:17:15;;;;;;;4.63;3.33;;;;;;;;;;5004796;28;21039;-71
2021/11/04 13:19:55;;;;;;;3.33;2.97;;;;;;;;;;5006899;28;20440;-71
2021/11/04 13:22:21;;;;;;;6.13;2.60;;;;;;;;;;5004624;28;20617;-71
2021/11/04 13:24:46;;;;;;;5.40;3.30;;;;;;;;;;5006296;28;20419;-71
2021/11/04 13:27:13;;;;;;;5.27;2.80;;;;;;;;;;5003475;28;20654;-72
2021/11/04 13:29:49;;;;;;;3.07;2.70;;;;;;;;;;5005556;28;20547;-72
2021/11/04 13:32:14;;;;;;;3.57;2.67;;;;;;;;;;5009128;28;20435;-72
2021/11/04 13:34:39;;;;;;;4.00;3.60;;;;;;;;;;5010796;28;20443;-71
2021/11/04 13:37:14;;;;;;;3.80;3.27;;;;;;;;;;5009719;28;20631;-71
2021/11/04 13:39:39;;;;;;;5.13;4.00;;;;;;;;;;5006318;28;20200;-71
2021/11/04 13:42:05;;;;;;;3.20;2.87;;;;;;;;;;5009787;28;20462;-71
2021/11/04 13:44:32;;;;;;;3.90;3.30;;;;;;;;;;5009437;28;20691;-71
2021/11/04 13:46:57;;;;;;;4.10;3.70;;;;;;;;;;5007450;28;20181;-71
2021/11/04 13:49:23;;;;;;;4.70;3.67;;;;;;;;;;5008142;28;20506;-71
2021/11/04 13:51:53;;;;;;;4.23;3.33;;;;;;;;;;5010589;28;20188;-71
2021/11/04 13:54:20;;;;;;;2.10;2.00;;;;;;;;;;5008352;28;20193;-71
2021/11/04 13:56:46;;;;;;;2.30;2.10;;;;;;;;;;5009351;28;20439;-71
2021/11/04 13:59:13;;;;;;;3.10;2.07;;;;;;;;;;5000891;28;20521;-71
2021/11/04 14:01:47;;;;;;;2.33;1.77;;;;;;;;;;5008502;28;20460;-72
2021/11/04 14:04:13;;;;;;;1.43;1.33;;;;;;;;;;5007340;28;20528;-71
2021/11/04 14:06:39;;;;;;;2.43;1.40;;;;;;;;;;5010211;28;20906;-71
2021/11/04 14:09:04;;;;;;;1.60;1.20;;;;;;;;;;5008996;28;20216;-71
2021/11/04 14:11:30;;;;;;;1.83;1.27;;;;;;;;;;5004847;28;20942;-71
2021/11/04 14:13:57;;;;;;;2.07;1.93;;;;;;;;;;5008881;28;20181;-72
2021/11/04 14:16:30;;;;;;;2.80;1.70;;;;;;;;;;5006253;28;20181;-71
2021/11/04 14:18:59;;;;;;;1.67;1.57;;;;;;;;;;5007549;28;20451;-71
2021/11/04 14:21:26;;;;;;;2.20;2.00;;;;;;;;;;5008557;28;20502;-71
2021/11/04 14:23:52;;;;;;;1.80;1.60;;;;;;;;;;5008444;28;20439;-72
2021/11/04 14:26:17;;;;;;;2.07;1.73;;;;;;;;;;5006014;28;20483;-72
2021/11/04 14:28:45;;;;;;;5.37;2.80;;;;;;;;;;5007945;28;20877;-72